Terminal Aerodrome Forecast
Issued by NWS Newport/Morehead City, NC

Home | Current Version | Previous Version | Graphics & Text | Print | Product List | Glossary On
Versions: 1 2 3 4 5 6 7 8 9 10 11 12 13
000
FTUS42 KMHX 202300
TAFEWN
TAF
KEWN 202337Z 2100/2124 16005KT P6SM SCT050
     FM210300 18003KT P6SM SCT025 BKN040
     FM211400 26005KT P6SM SCT050=

USA.gov is the U.S. government's official web portal to all federal, state and local government web resources and services.